createdAt,value
2022-11-07T00:02:02.200Z,90.63
2022-11-07T00:07:10.187Z,104.87
2022-11-07T00:12:16.300Z,100.10
2022-11-07T00:17:25.268Z,97.20
2022-11-07T00:22:33.194Z,100.97
2022-11-07T00:27:41.614Z,91.67
2022-11-07T00:32:49.484Z,100.10
2022-11-07T00:37:57.609Z,81.93
2022-11-07T00:43:05.548Z,87.60
2022-11-07T00:48:13.973Z,94.23
2022-11-07T00:53:22.195Z,83.63
2022-11-07T00:58:30.051Z,89.90
2022-11-07T01:03:39.993Z,77.50
2022-11-07T01:08:47.911Z,80.83
2022-11-07T01:13:57.209Z,76.30
2022-11-07T01:19:05.480Z,81.80
2022-11-07T01:24:13.946Z,88.20
2022-11-07T01:29:24.352Z,80.47
2022-11-07T01:34:32.556Z,78.63
2022-11-07T01:39:40.603Z,74.83
2022-11-07T01:44:51.164Z,86.67
2022-11-07T01:50:00.329Z,76.70
2022-11-07T01:55:14.245Z,76.87
2022-11-07T02:00:23.663Z,79.00
2022-11-07T02:05:35.084Z,69.27
2022-11-07T02:10:45.593Z,80.33
2022-11-07T02:15:55.401Z,72.17
2022-11-07T02:21:06.643Z,82.67
2022-11-07T02:26:14.986Z,76.33
2022-11-07T02:31:23.091Z,72.77
2022-11-07T02:36:31.250Z,70.73
2022-11-07T02:41:40.453Z,74.20
2022-11-07T02:46:47.162Z,72.27
2022-11-07T02:51:55.423Z,68.57
2022-11-07T02:57:03.961Z,72.83
2022-11-07T03:02:12.170Z,62.73
2022-11-07T03:07:21.069Z,77.03
2022-11-07T03:12:29.742Z,72.30
2022-11-07T03:17:40.676Z,66.47
2022-11-07T03:22:50.587Z,60.17
2022-11-07T03:27:58.716Z,54.33
2022-11-07T03:33:06.935Z,59.07
2022-11-07T03:38:14.879Z,59.77
2022-11-07T03:43:22.533Z,59.03
2022-11-07T03:48:30.812Z,51.57
2022-11-07T03:53:38.668Z,61.00
2022-11-07T03:58:57.413Z,65.03
2022-11-07T04:04:05.315Z,59.97
2022-11-07T04:09:13.478Z,61.07
2022-11-07T04:14:22.994Z,66.97
2022-11-07T04:19:30.815Z,52.97
2022-11-07T04:24:42.980Z,59.73
2022-11-07T04:29:48.273Z,62.70
2022-11-07T04:34:56.104Z,61.90
2022-11-07T04:40:04.118Z,63.50
2022-11-07T04:45:14.676Z,72.97
2022-11-07T04:50:22.907Z,60.80
2022-11-07T04:55:32.769Z,53.97
2022-11-07T05:00:41.546Z,60.83
2022-11-07T05:05:50.071Z,58.60
2022-11-07T05:10:57.903Z,54.90
2022-11-07T05:16:05.956Z,51.50
2022-11-07T05:21:14.259Z,53.63
2022-11-07T05:26:24.088Z,54.50
2022-11-07T05:31:34.701Z,53.73
2022-11-07T05:36:41.129Z,53.47
2022-11-07T05:41:49.450Z,57.33
2022-11-07T05:46:58.040Z,40.17
2022-11-07T05:52:06.917Z,49.33
2022-11-07T05:57:15.277Z,48.73
2022-11-07T06:02:23.198Z,46.33
2022-11-07T06:07:32.681Z,49.80
2022-11-07T06:12:41.287Z,51.53
2022-11-07T06:17:49.075Z,50.97
2022-11-07T06:22:59.468Z,49.00
2022-11-07T06:28:09.537Z,45.70
2022-11-07T06:33:19.023Z,44.80
2022-11-07T06:38:28.196Z,50.93
2022-11-07T06:43:38.136Z,57.40
2022-11-07T06:48:47.798Z,46.47
2022-11-07T06:53:58.045Z,45.10
2022-11-07T06:59:05.672Z,56.80
2022-11-07T07:04:15.608Z,54.17
2022-11-07T07:09:24.874Z,52.03
2022-11-07T07:14:33.667Z,53.83
2022-11-07T07:19:42.681Z,51.80
2022-11-07T07:24:52.449Z,58.03
2022-11-07T07:30:01.044Z,45.77
2022-11-07T07:35:10.227Z,37.83
2022-11-07T07:40:20.290Z,38.80
2022-11-07T07:45:29.386Z,39.90
2022-11-07T07:50:39.725Z,34.13
2022-11-07T07:55:55.758Z,39.37
2022-11-07T08:01:05.590Z,39.97
2022-11-07T08:06:13.853Z,34.63
2022-11-07T08:11:23.885Z,42.97
2022-11-07T08:16:33.492Z,36.10
2022-11-07T08:21:41.784Z,29.07
2022-11-07T08:26:49.626Z,23.53
2022-11-07T08:32:04.332Z,21.90
2022-11-07T08:37:12.488Z,20.77
2022-11-07T08:42:21.430Z,21.80
2022-11-07T08:47:34.464Z,18.30
2022-11-07T08:52:43.277Z,21.67
2022-11-07T08:57:52.042Z,16.90
2022-11-07T09:03:43.467Z,19.00
2022-11-07T09:08:12.610Z,19.73
2022-11-07T09:13:22.853Z,15.27
2022-11-07T09:18:34.970Z,15.00
2022-11-07T09:23:45.958Z,8.23
2022-11-07T09:28:58.711Z,10.60
2022-11-07T09:34:05.446Z,9.27
2022-11-07T09:39:13.283Z,12.03
2022-11-07T09:44:30.989Z,9.10
2022-11-07T09:49:38.641Z,10.93
2022-11-07T09:54:50.899Z,11.70
2022-11-07T10:00:01.881Z,12.40
2022-11-07T10:05:13.823Z,9.60
2022-11-07T10:10:27.859Z,10.80
2022-11-07T10:15:41.335Z,16.27
2022-11-07T10:21:05.445Z,9.90
2022-11-07T10:26:05.780Z,9.20
2022-11-07T10:31:14.928Z,13.47
2022-11-07T10:36:26.087Z,12.13
2022-11-07T10:41:35.037Z,7.50
2022-11-07T10:46:47.806Z,10.73
2022-11-07T10:52:07.223Z,6.67
2022-11-07T10:57:17.365Z,8.60
2022-11-07T11:02:27.802Z,8.30
2022-11-07T11:07:38.995Z,7.77
2022-11-07T11:12:47.989Z,6.90
2022-11-07T11:17:58.946Z,4.63
2022-11-07T11:23:09.979Z,6.60
2022-11-07T11:28:20.950Z,5.43
2022-11-07T11:33:31.755Z,5.00
2022-11-07T11:38:39.636Z,2.73
2022-11-07T11:43:50.561Z,5.03
2022-11-07T11:49:01.461Z,3.07
2022-11-07T11:54:13.471Z,2.70
2022-11-07T11:59:24.842Z,6.97
2022-11-07T12:04:36.025Z,5.40
2022-11-07T12:09:47.020Z,3.43
2022-11-07T12:14:59.337Z,5.97
2022-11-07T12:20:10.312Z,6.17
2022-11-07T12:30:38.422Z,7.17
2022-11-07T12:41:05.964Z,6.67
2022-11-07T12:46:17.181Z,9.03
2022-11-07T12:51:28.596Z,8.87
2022-11-07T12:56:38.554Z,6.10
2022-11-07T13:01:50.146Z,8.27
2022-11-07T13:07:01.231Z,5.17
2022-11-07T13:12:13.077Z,6.53
2022-11-07T13:17:25.056Z,5.40
2022-11-07T13:22:36.496Z,6.13
2022-11-07T13:27:47.050Z,4.83
2022-11-07T13:32:54.998Z,5.17
2022-11-07T13:38:08.720Z,4.83
2022-11-07T13:43:18.174Z,8.43
2022-11-07T13:48:31.458Z,4.90
2022-11-07T13:53:43.274Z,5.37
2022-11-07T13:58:53.447Z,5.90
2022-11-07T14:04:02.303Z,6.10
2022-11-07T14:09:11.463Z,8.93
2022-11-07T14:14:20.758Z,9.00
2022-11-07T14:19:30.941Z,4.93
2022-11-07T14:24:38.955Z,5.87
2022-11-07T14:29:54.187Z,11.57
2022-11-07T14:35:02.002Z,7.77
2022-11-07T14:40:11.875Z,4.30
2022-11-07T14:45:56.497Z,6.80
2022-11-07T14:50:34.426Z,5.53
2022-11-07T14:55:45.953Z,8.07
2022-11-07T15:00:58.601Z,5.20
2022-11-07T15:06:08.165Z,20.10
2022-11-07T15:11:22.099Z,9.97
2022-11-07T15:16:36.860Z,8.27
2022-11-07T15:21:52.676Z,5.80
2022-11-07T15:27:02.985Z,9.87
2022-11-07T15:32:18.205Z,7.00
2022-11-07T15:37:28.153Z,8.70
2022-11-07T15:42:36.279Z,9.87
2022-11-07T15:47:44.747Z,14.70
2022-11-07T15:52:53.211Z,13.30
2022-11-07T15:58:01.236Z,15.40
2022-11-07T16:03:12.260Z,15.23
2022-11-07T16:08:22.905Z,15.03
2022-11-07T16:13:31.482Z,12.43
2022-11-07T16:18:40.690Z,13.57
2022-11-07T16:23:52.167Z,11.07
2022-11-07T16:29:02.833Z,14.67
2022-11-07T16:34:11.792Z,16.80
2022-11-07T16:39:21.282Z,19.80
2022-11-07T16:44:32.183Z,19.50
2022-11-07T16:49:42.181Z,21.00
2022-11-07T16:54:50.540Z,25.40
2022-11-07T16:59:58.402Z,21.00
2022-11-07T17:05:07.397Z,19.20
2022-11-07T17:10:17.566Z,21.80
2022-11-07T17:15:25.387Z,19.67
2022-11-07T17:20:50.317Z,17.93
2022-11-07T17:25:46.834Z,28.73
2022-11-07T17:30:54.803Z,21.80
2022-11-07T17:36:02.828Z,20.70
2022-11-07T17:41:13.306Z,19.10
2022-11-07T17:46:26.494Z,21.70
2022-11-07T17:51:36.738Z,24.83
2022-11-07T17:56:45.837Z,23.13
2022-11-07T18:01:54.851Z,23.80
2022-11-07T18:07:05.229Z,34.10
2022-11-07T18:12:14.525Z,32.83
2022-11-07T18:17:22.375Z,44.27
2022-11-07T18:22:31.727Z,43.03
2022-11-07T18:27:39.721Z,27.03
2022-11-07T18:32:48.701Z,33.37
2022-11-07T18:37:58.808Z,55.97
2022-11-07T18:43:09.970Z,58.27
2022-11-07T18:48:18.711Z,55.70
2022-11-07T18:53:27.929Z,55.93
2022-11-07T18:58:37.901Z,64.73
2022-11-07T19:03:46.998Z,50.63
2022-11-07T19:08:55.176Z,55.40
2022-11-07T19:14:05.848Z,45.13
2022-11-07T19:19:13.806Z,51.97
2022-11-07T19:24:21.955Z,43.93
2022-11-07T19:29:31.179Z,42.90
2022-11-07T19:34:39.463Z,42.60
2022-11-07T19:39:47.801Z,31.27
2022-11-07T19:44:57.104Z,31.27
2022-11-07T19:50:05.488Z,31.57
2022-11-07T19:55:14.462Z,30.73
2022-11-07T20:00:24.313Z,33.77
2022-11-07T20:05:34.576Z,33.97
2022-11-07T20:10:45.680Z,29.77
2022-11-07T20:15:55.259Z,24.83
2022-11-07T20:21:06.456Z,25.47
2022-11-07T20:26:19.052Z,23.83
2022-11-07T20:31:30.626Z,25.97
2022-11-07T20:36:39.222Z,26.60
2022-11-07T20:41:47.574Z,26.73
2022-11-07T20:47:11.387Z,24.63
2022-11-07T20:52:19.388Z,25.97
2022-11-07T20:57:29.276Z,23.70
2022-11-07T21:02:40.457Z,25.57
2022-11-07T21:07:49.601Z,23.77
2022-11-07T21:12:57.455Z,25.50
2022-11-07T21:18:06.059Z,22.67
2022-11-07T21:23:16.036Z,24.90
2022-11-07T21:28:26.000Z,17.83
2022-11-07T21:33:34.298Z,21.67
2022-11-07T21:38:42.130Z,21.00
2022-11-07T21:43:50.042Z,25.33
2022-11-07T21:48:58.241Z,27.93
2022-11-07T21:54:07.249Z,26.40
2022-11-07T21:59:15.267Z,25.33
2022-11-07T22:04:23.193Z,21.93
2022-11-07T22:09:32.041Z,24.70
2022-11-07T22:14:39.928Z,27.43
2022-11-07T22:19:50.437Z,25.93
2022-11-07T22:24:59.079Z,22.73
2022-11-07T22:30:08.163Z,23.20
2022-11-07T22:35:16.950Z,22.97
2022-11-07T22:40:25.057Z,24.37
2022-11-07T22:45:32.893Z,25.23
2022-11-07T22:50:43.445Z,30.70
2022-11-07T22:55:51.389Z,30.27
2022-11-07T23:00:59.321Z,33.00
2022-11-07T23:06:08.305Z,35.10
2022-11-07T23:16:32.895Z,28.87
2022-11-07T23:21:41.009Z,30.63
2022-11-07T23:26:50.160Z,29.03
2022-11-07T23:31:59.159Z,30.87
2022-11-07T23:37:09.310Z,33.63
2022-11-07T23:42:17.408Z,30.50
2022-11-07T23:47:26.768Z,23.53
2022-11-07T23:52:35.114Z,29.97
2022-11-07T23:57:45.200Z,29.17
